Decoded Metar for LFBT (TARBES in FRANCE) (IATA:LDE) | Meteo·Mobile Aviation Weather
aviador You're here:

LFBT Decoded Metar

TARBES in FRANCE
Report Time2019-10-21 08:00:00
UTC Time2019-10-21 08:07:25
Flight Rules vfr VFR
Wind170° at 04 kt
W.Decomp.*RWY 20: 3.5 kt HW 2 kt LCW
Visibility9999 m
Phenomena:N/A
Clouds:Overcast 050 Hf
Expected CloudBase > 800 ft AGL from Temp-Dew spread
Ceiling5,000 ft
Temp11°C (ISA -2)
Dew Point09°C (88% RH)
AAT9.4°C
QNH1018 hPa
Density Alt988 ft
Elevation1,191 ft
Report Wrong Elevation
Raw Report
METAR LFBT 210800Z AUTO 17004KT 9999 OVC050 11/09 Q1018 NOSIG=

Extra information for LFBT:More info

Metar Taf Metar & Taf Last 4 Metars F.Rules Stats Wind Profile Meteogram Temp Stats Airport Information Weather charts Add Link Nearby VenuesMetar ALERT Operation Metar Decoded Social comments